Time,TemperatureF,DewpointF,PressureIn,WindDirection,WindDirectionDegrees,WindSpeedMPH,WindSpeedGustMPH,Humidity,HourlyPrecipIn,Conditions,Clouds,dailyrainin,SoftwareType,DateUTC
2013-05-12 00:01:00,53.0,37.0,-100.00,ENE,60,3.0,9.0,54,0.00,,,-99.99,,2013-05-12 06:01:00,
2013-05-12 00:11:00,53.0,37.0,-100.00,SE,125,4.0,6.0,54,0.00,,,-99.99,,2013-05-12 06:11:00,
2013-05-12 00:21:00,54.0,37.0,-100.00,East,80,2.0,7.0,52,0.00,,,-99.99,,2013-05-12 06:21:00,
2013-05-12 00:32:00,53.0,37.0,-100.00,ESE,105,3.0,7.0,53,0.00,,,-99.99,,2013-05-12 06:32:00,
2013-05-12 00:42:00,54.0,37.0,-100.00,ESE,105,3.0,6.0,52,0.00,,,-99.99,,2013-05-12 06:42:00,
2013-05-12 00:51:00,52.0,37.0,-100.00,NE,55,5.0,6.0,56,0.00,,,-99.99,,2013-05-12 06:51:00,
2013-05-12 01:01:00,52.0,37.0,-100.00,ENE,60,4.0,6.0,56,0.00,,,-99.99,,2013-05-12 07:01:00,
2013-05-12 01:11:00,52.0,37.0,-100.00,East,80,2.0,4.0,56,0.00,,,-99.99,,2013-05-12 07:11:00,
2013-05-12 01:21:00,52.0,37.0,-100.00,East,95,1.0,4.0,55,0.00,,,-99.99,,2013-05-12 07:21:00,
2013-05-12 01:32:00,53.0,37.0,-100.00,NE,35,1.0,4.0,55,0.00,,,-99.99,,2013-05-12 07:32:00,
2013-05-12 01:42:00,53.0,37.0,-100.00,East,90,1.0,3.0,55,0.00,,,-99.99,,2013-05-12 07:42:00,
2013-05-12 01:52:00,55.0,37.0,-100.00,SE,125,6.0,9.0,49,0.00,,,-99.99,,2013-05-12 07:52:00,
2013-05-12 02:02:00,58.0,37.0,-100.00,South,170,5.0,9.0,45,0.00,,,-99.99,,2013-05-12 08:02:00,
2013-05-12 02:11:00,58.0,37.0,-100.00,ESE,110,7.0,12.0,45,0.00,,,-99.99,,2013-05-12 08:11:00,
2013-05-12 02:21:00,56.0,37.0,-100.00,SW,215,6.0,11.0,49,0.00,,,-99.99,,2013-05-12 08:21:00,
2013-05-12 02:32:00,54.0,38.0,-100.00,WSW,250,4.0,9.0,54,0.00,,,-99.99,,2013-05-12 08:32:00,
2013-05-12 02:41:00,53.0,38.0,-100.00,NW,320,1.0,6.0,56,0.00,,,-99.99,,2013-05-12 08:41:00,
2013-05-12 02:52:00,53.0,38.0,-100.00,NNE,25,3.0,4.0,56,0.00,,,-99.99,,2013-05-12 08:52:00,
2013-05-12 03:01:00,53.0,38.0,-100.00,West,270,0.0,4.0,56,0.00,,,-99.99,,2013-05-12 09:01:00,
2013-05-12 03:11:00,53.0,38.0,-100.00,NW,305,1.0,1.0,56,0.00,,,-99.99,,2013-05-12 09:11:00,
2013-05-12 03:21:00,53.0,38.0,-100.00,NE,50,3.0,4.0,57,0.00,,,-99.99,,2013-05-12 09:21:00,
2013-05-12 03:33:00,52.0,38.0,-100.00,ENE,75,2.0,3.0,57,0.00,,,-99.99,,2013-05-12 09:33:00,
2013-05-12 03:42:00,52.0,38.0,-100.00,NE,55,1.0,3.0,59,0.00,,,-99.99,,2013-05-12 09:42:00,
2013-05-12 03:52:00,52.0,38.0,-100.00,East,90,3.0,4.0,59,0.00,,,-99.99,,2013-05-12 09:52:00,
2013-05-12 04:03:00,53.0,38.0,-100.00,ESE,110,5.0,7.0,57,0.00,,,-99.99,,2013-05-12 10:03:00,
2013-05-12 04:12:00,55.0,38.0,-100.00,ESE,105,6.0,11.0,52,0.00,,,-99.99,,2013-05-12 10:12:00,
2013-05-12 04:22:00,59.0,39.0,-100.00,East,95,7.0,12.0,48,0.00,,,-99.99,,2013-05-12 10:22:00,
2013-05-12 04:33:00,59.0,39.0,-100.00,East,100,9.0,16.0,47,0.00,,,-99.99,,2013-05-12 10:33:00,
2013-05-12 04:42:00,60.0,39.0,-100.00,ESE,105,6.0,12.0,46,0.00,,,-99.99,,2013-05-12 10:42:00,
2013-05-12 04:52:00,59.0,39.0,-100.00,ENE,65,2.0,10.0,46,0.00,,,-99.99,,2013-05-12 10:52:00,
2013-05-12 05:02:00,58.0,38.0,-100.00,ENE,65,3.0,6.0,47,0.00,,,-99.99,,2013-05-12 11:02:00,
2013-05-12 05:12:00,58.0,38.0,-100.00,North,0,0.0,3.0,48,0.00,,,-99.99,,2013-05-12 11:12:00,
2013-05-12 05:21:00,57.0,38.0,-100.00,SSE,150,3.0,5.0,49,0.00,,,-99.99,,2013-05-12 11:21:00,
2013-05-12 05:32:00,56.0,38.0,-100.00,East,100,3.0,6.0,50,0.00,,,-99.99,,2013-05-12 11:32:00,
2013-05-12 05:42:00,55.0,38.0,-100.00,ENE,75,4.0,6.0,52,0.00,,,-99.99,,2013-05-12 11:42:00,
2013-05-12 05:51:00,54.0,37.0,-100.00,ENE,60,6.0,9.0,53,0.00,,,-99.99,,2013-05-12 11:51:00,
2013-05-12 06:01:00,55.0,37.0,-100.00,SE,130,3.0,7.0,50,0.00,,,-99.99,,2013-05-12 12:01:00,
2013-05-12 06:11:00,55.0,37.0,-100.00,ESE,105,4.0,9.0,49,0.00,,,-99.99,,2013-05-12 12:11:00,
2013-05-12 06:21:00,55.0,37.0,-100.00,NE,50,2.0,7.0,50,0.00,,,-99.99,,2013-05-12 12:21:00,
2013-05-12 06:32:00,53.0,37.0,-100.00,NNE,15,3.0,4.0,53,0.00,,,-99.99,,2013-05-12 12:32:00,
2013-05-12 06:41:00,53.0,37.0,-100.00,NE,45,3.0,4.0,53,0.00,,,-99.99,,2013-05-12 12:41:00,
2013-05-12 06:51:00,53.0,37.0,-100.00,NNE,30,3.0,4.0,53,0.00,,,-99.99,,2013-05-12 12:51:00,
2013-05-12 07:01:00,54.0,38.0,-100.00,SSE,160,2.0,3.0,54,0.00,,,-99.99,,2013-05-12 13:01:00,
2013-05-12 07:11:00,56.0,38.0,-100.00,SSE,165,6.0,8.0,49,0.00,,,-99.99,,2013-05-12 13:11:00,
2013-05-12 07:21:00,60.0,38.0,-100.00,SE,140,6.0,10.0,44,0.00,,,-99.99,,2013-05-12 13:21:00,
2013-05-12 07:32:00,60.0,38.0,-100.00,SSE,165,7.0,9.0,43,0.00,,,-99.99,,2013-05-12 13:32:00,
2013-05-12 07:42:00,62.0,39.0,-100.00,SSE,150,2.0,9.0,42,0.00,,,-99.99,,2013-05-12 13:42:00,
2013-05-12 07:52:00,61.0,39.0,-100.00,NNW,345,4.0,6.0,44,0.00,,,-99.99,,2013-05-12 13:52:00,
2013-05-12 08:01:00,62.0,40.0,-100.00,NNW,330,2.0,5.0,43,0.00,,,-99.99,,2013-05-12 14:01:00,
2013-05-12 08:11:00,64.0,41.0,-100.00,West,270,2.0,4.0,41,0.00,,,-99.99,,2013-05-12 14:11:00,
2013-05-12 08:21:00,66.0,41.0,-100.00,NW,315,2.0,4.0,39,0.00,,,-99.99,,2013-05-12 14:21:00,
2013-05-12 08:31:00,66.0,40.0,-100.00,NE,55,3.0,6.0,37,0.00,,,-99.99,,2013-05-12 14:31:00,
2013-05-12 08:42:00,67.0,40.0,-100.00,SE,145,4.0,9.0,36,0.00,,,-99.99,,2013-05-12 14:42:00,
2013-05-12 08:52:00,68.0,40.0,-100.00,SSW,205,4.0,10.0,35,0.00,,,-99.99,,2013-05-12 14:52:00,
2013-05-12 09:01:00,69.0,40.0,-100.00,SE,140,3.0,7.0,35,0.00,,,-99.99,,2013-05-12 15:01:00,
2013-05-12 09:11:00,70.0,41.0,-100.00,South,175,6.0,9.0,34,0.00,,,-99.99,,2013-05-12 15:11:00,
2013-05-12 09:21:00,70.0,40.0,-100.00,ESE,110,5.0,11.0,33,0.00,,,-99.99,,2013-05-12 15:21:00,
2013-05-12 09:34:00,71.0,40.0,-100.00,SW,235,6.0,9.0,32,0.00,,,-99.99,,2013-05-12 15:34:00,
2013-05-12 09:42:00,71.0,40.0,-100.00,SW,230,9.0,12.0,32,0.00,,,-99.99,,2013-05-12 15:42:00,
2013-05-12 09:52:00,71.0,40.0,-100.00,South,190,6.0,9.0,32,0.00,,,-99.99,,2013-05-12 15:52:00,
2013-05-12 10:02:00,71.0,41.0,-100.00,SW,235,7.0,11.0,32,0.00,,,-99.99,,2013-05-12 16:02:00,
2013-05-12 10:12:00,71.0,41.0,-100.00,WSW,250,6.0,9.0,32,0.00,,,-99.99,,2013-05-12 16:12:00,
2013-05-12 10:23:00,71.0,40.0,-100.00,SSW,195,6.0,11.0,32,0.00,,,-99.99,,2013-05-12 16:23:00,
2013-05-12 10:33:00,73.0,41.0,-100.00,WSW,250,5.0,10.0,32,0.00,,,-99.99,,2013-05-12 16:33:00,
2013-05-12 10:42:00,72.0,40.0,-100.00,WSW,240,6.0,13.0,31,0.00,,,-99.99,,2013-05-12 16:42:00,
2013-05-12 10:52:00,71.0,39.0,-100.00,West,270,7.0,14.0,31,0.00,,,-99.99,,2013-05-12 16:52:00,
2013-05-12 11:02:00,71.0,39.0,-100.00,SSW,200,8.0,12.0,30,0.00,,,-99.99,,2013-05-12 17:02:00,
2013-05-12 11:12:00,72.0,39.0,-100.00,WSW,250,9.0,12.0,30,0.00,,,-99.99,,2013-05-12 17:12:00,
2013-05-12 11:22:00,72.0,39.0,-100.00,West,275,4.0,12.0,30,0.00,,,-99.99,,2013-05-12 17:22:00,
2013-05-12 11:32:00,72.0,39.0,-100.00,WNW,300,5.0,10.0,29,0.00,,,-99.99,,2013-05-12 17:32:00,
2013-05-12 11:42:00,73.0,39.0,-100.00,WSW,245,6.0,12.0,29,0.00,,,-99.99,,2013-05-12 17:42:00,
2013-05-12 11:52:00,74.0,40.0,-100.00,South,170,3.0,9.0,29,0.00,,,-99.99,,2013-05-12 17:52:00,
2013-05-12 12:01:00,72.0,39.0,-100.00,SE,140,5.0,12.0,29,0.00,,,-99.99,,2013-05-12 18:01:00,
2013-05-12 12:12:00,74.0,40.0,-100.00,WNW,285,3.0,10.0,29,0.00,,,-99.99,,2013-05-12 18:12:00,
2013-05-12 12:22:00,73.0,39.0,-100.00,SW,235,4.0,9.0,29,0.00,,,-99.99,,2013-05-12 18:22:00,
2013-05-12 12:32:00,74.0,40.0,-100.00,WSW,255,4.0,9.0,29,0.00,,,-99.99,,2013-05-12 18:32:00,
2013-05-12 12:42:00,74.0,40.0,-100.00,West,270,4.0,11.0,28,0.00,,,-99.99,,2013-05-12 18:42:00,
2013-05-12 12:51:00,75.0,41.0,-100.00,SW,220,5.0,12.0,28,0.00,,,-99.99,,2013-05-12 18:51:00,
2013-05-12 13:01:00,76.0,41.0,-100.00,West,265,7.0,12.0,28,0.00,,,-99.99,,2013-05-12 19:01:00,
2013-05-12 13:11:00,75.0,40.0,-100.00,SW,235,9.0,14.0,28,0.00,,,-99.99,,2013-05-12 19:11:00,
2013-05-12 13:21:00,75.0,40.0,-100.00,SW,230,6.0,14.0,28,0.00,,,-99.99,,2013-05-12 19:21:00,
2013-05-12 13:32:00,75.0,40.0,-100.00,SSW,205,7.0,12.0,28,0.00,,,-99.99,,2013-05-12 19:32:00,
2013-05-12 13:42:00,76.0,41.0,-100.00,SSW,200,3.0,11.0,28,0.00,,,-99.99,,2013-05-12 19:42:00,
2013-05-12 13:52:00,75.0,40.0,-100.00,SW,215,6.0,15.0,28,0.00,,,-99.99,,2013-05-12 19:52:00,
2013-05-12 14:02:00,76.0,40.0,-100.00,West,265,7.0,14.0,28,0.00,,,-99.99,,2013-05-12 20:02:00,
2013-05-12 14:11:00,77.0,42.0,-100.00,West,265,4.0,9.0,27,0.00,,,-99.99,,2013-05-12 20:11:00,
2013-05-12 14:21:00,75.0,40.0,-100.00,WNW,290,6.0,14.0,28,0.00,,,-99.99,,2013-05-12 20:21:00,
2013-05-12 14:32:00,75.0,41.0,-100.00,North,350,9.0,14.0,28,0.00,,,-99.99,,2013-05-12 20:32:00,
2013-05-12 14:42:00,76.0,41.0,-100.00,SSW,205,6.0,12.0,28,0.00,,,-99.99,,2013-05-12 20:42:00,
2013-05-12 14:51:00,76.0,41.0,-100.00,SW,225,8.0,11.0,28,0.00,,,-99.99,,2013-05-12 20:51:00,
2013-05-12 15:01:00,76.0,41.0,-100.00,SW,220,4.0,14.0,28,0.00,,,-99.99,,2013-05-12 21:01:00,
2013-05-12 15:11:00,78.0,42.0,-100.00,NE,45,1.0,9.0,27,0.00,,,-99.99,,2013-05-12 21:11:00,
2013-05-12 15:21:00,78.0,41.0,-100.00,West,270,7.0,11.0,27,0.00,,,-99.99,,2013-05-12 21:21:00,
2013-05-12 15:33:00,77.0,41.0,-100.00,SSW,210,4.0,9.0,27,0.00,,,-99.99,,2013-05-12 21:33:00,
2013-05-12 15:42:00,77.0,41.0,-100.00,West,270,6.0,10.0,27,0.00,,,-99.99,,2013-05-12 21:42:00,
2013-05-12 15:52:00,77.0,41.0,-100.00,SW,230,3.0,9.0,27,0.00,,,-99.99,,2013-05-12 21:52:00,
2013-05-12 16:02:00,77.0,41.0,-100.00,SW,225,7.0,12.0,27,0.00,,,-99.99,,2013-05-12 22:02:00,
2013-05-12 16:12:00,77.0,41.0,-100.00,WSW,240,7.0,12.0,27,0.00,,,-99.99,,2013-05-12 22:12:00,
2013-05-12 16:23:00,78.0,41.0,-100.00,SSW,200,6.0,10.0,26,0.00,,,-99.99,,2013-05-12 22:23:00,
2013-05-12 16:33:00,76.0,40.0,-100.00,SSE,165,3.0,7.0,27,0.00,,,-99.99,,2013-05-12 22:33:00,
2013-05-12 16:42:00,78.0,42.0,-100.00,SW,235,7.0,11.0,27,0.00,,,-99.99,,2013-05-12 22:42:00,
2013-05-12 16:52:00,79.0,42.0,-100.00,SW,230,5.0,10.0,26,0.00,,,-99.99,,2013-05-12 22:52:00,
2013-05-12 17:02:00,79.0,42.0,-100.00,SW,235,3.0,9.0,26,0.00,,,-99.99,,2013-05-12 23:02:00,
2013-05-12 17:12:00,78.0,41.0,-100.00,SSW,205,4.0,11.0,26,0.00,,,-99.99,,2013-05-12 23:12:00,
2013-05-12 17:22:00,77.0,40.0,-100.00,WNW,300,5.0,9.0,26,0.00,,,-99.99,,2013-05-12 23:22:00,
2013-05-12 17:32:00,77.0,41.0,-100.00,West,265,2.0,6.0,27,0.00,,,-99.99,,2013-05-12 23:32:00,
2013-05-12 17:42:00,77.0,41.0,-100.00,NNW,330,2.0,5.0,27,0.00,,,-99.99,,2013-05-12 23:42:00,
2013-05-12 17:52:00,76.0,40.0,-100.00,West,275,6.0,8.0,27,0.00,,,-99.99,,2013-05-12 23:52:00,
2013-05-12 18:01:00,76.0,40.0,-100.00,West,270,4.0,6.0,27,0.00,,,-99.99,,2013-05-13 00:01:00,
2013-05-12 18:11:00,76.0,41.0,-100.00,NW,325,4.0,6.0,27,0.00,,,-99.99,,2013-05-13 00:11:00,
2013-05-12 18:21:00,76.0,40.0,-100.00,NW,315,2.0,4.0,27,0.00,,,-99.99,,2013-05-13 00:21:00,
2013-05-12 18:32:00,76.0,40.0,-100.00,NW,310,3.0,6.0,27,0.00,,,-99.99,,2013-05-13 00:32:00,
2013-05-12 18:42:00,77.0,41.0,-100.00,NW,305,1.0,7.0,27,0.00,,,-99.99,,2013-05-13 00:42:00,
2013-05-12 18:51:00,76.0,40.0,-100.00,NNW,335,4.0,7.0,27,0.00,,,-99.99,,2013-05-13 00:51:00,
2013-05-12 19:01:00,75.0,40.0,-100.00,NW,320,1.0,7.0,27,0.00,,,-99.99,,2013-05-13 01:01:00,
2013-05-12 19:11:00,75.0,40.0,-100.00,NNW,335,1.0,7.0,28,0.00,,,-99.99,,2013-05-13 01:11:00,
2013-05-12 19:22:00,75.0,40.0,-100.00,North,350,2.0,4.0,28,0.00,,,-99.99,,2013-05-13 01:22:00,
2013-05-12 19:31:00,75.0,41.0,-100.00,NNE,20,2.0,4.0,29,0.00,,,-99.99,,2013-05-13 01:31:00,
2013-05-12 19:42:00,75.0,41.0,-100.00,NNE,15,4.0,6.0,29,0.00,,,-99.99,,2013-05-13 01:42:00,
2013-05-12 19:52:00,74.0,41.0,-100.00,NNE,15,3.0,6.0,30,0.00,,,-99.99,,2013-05-13 01:52:00,
2013-05-12 20:01:00,73.0,40.0,-100.00,NNE,20,6.0,7.0,30,0.00,,,-99.99,,2013-05-13 02:01:00,
2013-05-12 20:11:00,72.0,40.0,-100.00,North,10,4.0,7.0,31,0.00,,,-99.99,,2013-05-13 02:11:00,
2013-05-12 20:21:00,70.0,39.0,-100.00,NE,50,6.0,8.0,33,0.00,,,-99.99,,2013-05-13 02:21:00,
2013-05-12 20:32:00,69.0,39.0,-100.00,ENE,60,3.0,6.0,33,0.00,,,-99.99,,2013-05-13 02:32:00,
2013-05-12 20:41:00,69.0,39.0,-100.00,NE,40,6.0,8.0,34,0.00,,,-99.99,,2013-05-13 02:41:00,
2013-05-12 20:51:00,68.0,39.0,-100.00,East,95,2.0,6.0,34,0.00,,,-99.99,,2013-05-13 02:51:00,
2013-05-12 21:02:00,67.0,39.0,-100.00,ESE,110,5.0,7.0,35,0.00,,,-99.99,,2013-05-13 03:02:00,
2013-05-12 21:11:00,67.0,39.0,-100.00,East,100,3.0,6.0,35,0.00,,,-99.99,,2013-05-13 03:11:00,
2013-05-12 21:21:00,66.0,39.0,-100.00,ESE,115,4.0,7.0,37,0.00,,,-99.99,,2013-05-13 03:21:00,
2013-05-12 21:32:00,66.0,39.0,-100.00,ESE,120,4.0,7.0,37,0.00,,,-99.99,,2013-05-13 03:32:00,
2013-05-12 21:42:00,65.0,39.0,-100.00,East,95,3.0,6.0,37,0.00,,,-99.99,,2013-05-13 03:42:00,
2013-05-12 21:52:00,65.0,39.0,-100.00,ESE,115,2.0,7.0,37,0.00,,,-99.99,,2013-05-13 03:52:00,
2013-05-12 22:02:00,65.0,38.0,-100.00,ENE,65,1.0,4.0,37,0.00,,,-99.99,,2013-05-13 04:02:00,
2013-05-12 22:12:00,64.0,38.0,-100.00,ESE,105,2.0,3.0,38,0.00,,,-99.99,,2013-05-13 04:12:00,
2013-05-12 22:23:00,63.0,38.0,-100.00,South,170,1.0,4.0,38,0.00,,,-99.99,,2013-05-13 04:23:00,
2013-05-12 22:32:00,64.0,38.0,-100.00,SW,235,1.0,4.0,38,0.00,,,-99.99,,2013-05-13 04:32:00,
2013-05-12 22:42:00,63.0,38.0,-100.00,WNW,295,3.0,6.0,40,0.00,,,-99.99,,2013-05-13 04:42:00,
2013-05-12 22:52:00,62.0,39.0,-100.00,East,80,1.0,3.0,41,0.00,,,-99.99,,2013-05-13 04:52:00,
2013-05-12 23:02:00,62.0,39.0,-100.00,NW,310,1.0,3.0,42,0.00,,,-99.99,,2013-05-13 05:02:00,
2013-05-12 23:12:00,62.0,39.0,-100.00,NNE,15,1.0,4.0,42,0.00,,,-99.99,,2013-05-13 05:12:00,
2013-05-12 23:21:00,62.0,39.0,-100.00,SE,140,3.0,7.0,42,0.00,,,-99.99,,2013-05-13 05:21:00,
2013-05-12 23:32:00,64.0,39.0,-100.00,ENE,65,3.0,7.0,39,0.00,,,-99.99,,2013-05-13 05:32:00,
2013-05-12 23:42:00,69.0,40.0,-100.00,ESE,110,7.0,14.0,35,0.00,,,-99.99,,2013-05-13 05:42:00,
2013-05-12 23:51:00,70.0,40.0,-100.00,ESE,105,6.0,18.0,33,0.00,,,-99.99,,2013-05-13 05:51:00,